Flight Track Log - Related Links

Times and Time Zones

All times are in EDT time to prevent confusion due to time zone crossing. See the SKW6506 flight status page for this flight to view local times or setup timezone preferences in your user account.

Time Position Orientation Groundspeed Altitude Reporting Facility
EDT Latitude Longitude Course Direction KTS MPH feet Rate Location/Type
Thu 11:35:15 AM 33.9724 -118.4157 248° West  Level FlightAware Approximate
Thu 11:36:15 AM 33.9333 -118.5392 70° East  Level FlightAware Approximate
Thu 11:36:56 AM 33.9500 -118.4833 261° West 185 213 2,100  Level Southern California TRACON
Thu 11:38:18 AM 33.9353 -118.5975 291° West 242 278 5,600 2,831 Climbing Los Angeles Center
Thu 11:39:18 AM 33.9608 -118.6758 338° Northwest 243 280 8,800 2,050 Climbing Los Angeles Center
Thu 11:40:18 AM 34.0308 -118.7106 28° Northeast 237 273 9,700 1,600 Climbing Los Angeles Center
Thu 11:41:18 AM 34.1092 -118.6603 17° North 229 264 12,000 1,450 Climbing Los Angeles Center
Thu 11:42:18 AM 34.1850 -118.6322 343° North 278 320 12,600 1,150 Climbing Los Angeles Center
Thu 11:43:18 AM 34.2739 -118.6653 343° North 295 339 14,300 1,850 Climbing Los Angeles Center
Thu 11:44:18 AM 34.3631 -118.6981 344° North 310 357 16,300 1,950 Climbing Los Angeles Center
Thu 11:45:18 AM 34.4564 -118.7311 343° North 331 381 18,200 1,800 Climbing Los Angeles Center
Thu 11:46:18 AM 34.5536 -118.7669 342° North 347 399 19,900 1,600 Climbing Los Angeles Center
Thu 11:47:18 AM 34.6528 -118.8056 341° North 361 415 21,400 1,350 Climbing Los Angeles Center
Thu 11:48:18 AM 34.7667 -118.8522 343° North 374 430 22,600 1,350 Climbing Los Angeles Center
Thu 11:49:18 AM 34.8722 -118.8911 347° North 379 436 24,100 1,300 Climbing Los Angeles Center
Thu 11:50:18 AM 34.9758 -118.9200 345° North 397 457 25,200 1,150 Climbing Los Angeles Center
Thu 11:51:18 AM 35.0856 -118.9567 344° North 408 470 26,400 1,150 Climbing Los Angeles Center
Thu 11:52:18 AM 35.1953 -118.9961 344° North 413 475 27,500 1,000 Climbing Los Angeles Center
Thu 11:53:18 AM 35.3111 -119.0358 345° North 413 475 28,400 900 Climbing Los Angeles Center
Thu 11:54:18 AM 35.4250 -119.0731 351° North 413 475 29,300 1,006 Climbing Los Angeles Center
Thu 11:56:11 AM 35.6622 -119.1208 354° North 425 489 31,300 936 Climbing Oakland Center
Thu 11:57:11 AM 35.7814 -119.1358 353° North 430 495 32,000 350 Climbing Oakland Center
Thu 11:58:11 AM 35.9047 -119.1536 353° North 430 495 32,000  Level Oakland Center
Thu 11:59:11 AM 36.0281 -119.1711 354° North 430 495 32,000  Level Oakland Center
Thu 12:00:12 PM 36.1533 -119.1886 354° North 441 507 32,000  Level Oakland Center
Thu 12:01:11 PM 36.2789 -119.2039 354° North 447 514 32,000  Level Oakland Center
Thu 12:02:11 PM 36.4000 -119.2192 352° North 447 514 32,000  Level Oakland Center
Thu 12:03:12 PM 36.5233 -119.2394 354° North 447 514 32,000  Level Oakland Center
Thu 12:04:11 PM 36.6447 -119.2550 354° North 447 514 32,000  Level Oakland Center
Thu 12:05:11 PM 36.7681 -119.2703 354° North 447 514 32,000  Level Oakland Center
Thu 12:06:11 PM 36.8914 -119.2856 353° North 447 514 32,000  Level Oakland Center
Thu 12:07:11 PM 37.0189 -119.3061 354° North 447 514 32,000  Level Oakland Center
Thu 12:08:12 PM 37.1422 -119.3217 353° North 447 514 32,000  Level Oakland Center
Thu 12:09:11 PM 37.2717 -119.3422 355° North 447 514 32,000  Level Oakland Center
Thu 12:10:11 PM 37.4014 -119.3578 354° North 453 521 32,000  Level Oakland Center
Thu 12:11:12 PM 37.5267 -119.3733 358° North 453 521 32,000  Level Oakland Center
Thu 12:12:11 PM 37.6478 -119.3786 353° North 463 533 32,000  Level Oakland Center
Thu 12:13:12 PM 37.7753 -119.3994 353° North 463 533 32,000  Level Oakland Center
Thu 12:14:12 PM 37.9028 -119.4181 354° North 463 533 32,000  Level Oakland Center
Thu 12:15:12 PM 38.0281 -119.4336 351° North 463 533 32,000  Level Oakland Center
Thu 12:16:12 PM 38.1453 -119.4578 355° North 450 518 32,000  Level Oakland Center
Thu 12:17:11 PM 38.2747 -119.4708 354° North 450 518 32,000  Level Oakland Center
Thu 12:18:11 PM 38.3958 -119.4869 353° North 445 512 32,000  Level Oakland Center
Thu 12:19:12 PM 38.5108 -119.5058 13° North 429 494 32,000  Level Oakland Center
Thu 12:20:12 PM 38.6314 -119.4714 16° North 421 484 32,000  Level Oakland Center
Thu 12:21:11 PM 38.7558 -119.4261 17° North 434 499 32,000  Level Oakland Center
Thu 12:22:11 PM 38.8783 -119.3783 16° North 445 512 32,000  Level Oakland Center
Thu 12:23:12 PM 39.0028 -119.3328 17° North 451 519 32,000  Level Oakland Center
Thu 12:24:11 PM 39.1356 -119.2814 17° North 451 519 32,000  Level Oakland Center
Thu 12:25:12 PM 39.2578 -119.2331 17° North 451 519 32,000  Level Oakland Center
Thu 12:26:11 PM 39.3803 -119.1844 17° North 456 525 32,000  Level Oakland Center
Thu 12:27:11 PM 39.5003 -119.1383 17° North 456 525 32,000  Level Oakland Center
Thu 12:28:11 PM 39.6247 -119.0892 17° North 456 525 32,000  Level Oakland Center
Thu 12:29:11 PM 39.7447 -119.0400 16° North 450 518 32,000  Level Oakland Center
Thu 12:30:11 PM 39.8669 -118.9933 16° North 455 524 32,000  Level Oakland Center
Thu 12:31:11 PM 39.9914 -118.9467 18° North 455 524 32,000  Level Oakland Center
Thu 12:32:11 PM 40.1114 -118.8969 18° North 455 524 32,000  Level Oakland Center
Thu 12:32:46 PM 40.1625 -118.8750 17° North 456 525 32,000  Level Salt Lake Center
Thu 12:33:48 PM 40.2889 -118.8247 17° North 459 528 32,000  Level Salt Lake Center
Thu 12:34:49 PM 40.4267 -118.7700 17° North 461 531 32,000  Level Salt Lake Center
Thu 12:35:51 PM 40.5442 -118.7222 17° North 461 531 32,000  Level Salt Lake Center
Thu 12:36:53 PM 40.6828 -118.6661 17° North 462 532 32,000  Level Salt Lake Center
Thu 12:37:55 PM 40.8019 -118.6186 17° North 464 534 32,000  Level Salt Lake Center
Thu 12:38:57 PM 40.9411 -118.5631 17° North 466 536 32,000  Level Salt Lake Center
Thu 12:39:59 PM 41.0608 -118.5147 17° North 467 537 32,000  Level Salt Lake Center
Thu 12:41:01 PM 41.1808 -118.4653 17° North 468 539 32,000  Level Salt Lake Center
Thu 12:42:03 PM 41.3203 -118.4072 17° North 467 537 32,000  Level Salt Lake Center
Thu 12:43:05 PM 41.4392 -118.3589 17° North 467 537 32,000  Level Salt Lake Center
Thu 12:44:07 PM 41.5786 -118.3003 17° North 468 539 32,000  Level Salt Lake Center
Thu 12:45:09 PM 41.6983 -118.2506 17° North 469 540 32,000  Level Salt Lake Center
Thu 12:46:11 PM 41.8378 -118.1922 17° North 468 539 32,000  Level Salt Lake Center
Thu 12:47:12 PM 41.9578 -118.1417 17° North 469 540 32,000  Level Salt Lake Center
Thu 12:48:14 PM 42.0775 -118.0908 18° North 470 541 32,000  Level Salt Lake Center
Thu 12:49:16 PM 42.2136 -118.0325 19° North 471 542 32,000  Level Salt Lake Center
Thu 12:50:18 PM 42.3519 -117.9686 18° North 471 542 32,000  Level Salt Lake Center
Thu 12:51:20 PM 42.4717 -117.9147 40° Northeast 473 544 32,000  Level Salt Lake Center
Thu 12:52:22 PM 42.5828 -117.7858 48° Northeast 472 543 32,000 -49 Level Salt Lake Center
Thu 12:53:23 PM 42.6661 -117.6578 49° Northeast 472 543 31,900 -1,415 Descending Salt Lake Center
Thu 12:54:25 PM 42.7511 -117.5261 49° Northeast 480 552 29,100 -3,000 Descending Salt Lake Center
Thu 12:55:27 PM 42.8503 -117.3689 49° Northeast 487 560 25,700 -3,000 Descending Salt Lake Center
Thu 12:56:29 PM 42.9311 -117.2400 49° Northeast 469 540 22,900 -3,024 Descending Salt Lake Center
Thu 12:57:30 PM 43.0189 -117.0994 49° Northeast 436 502 19,500 -2,829 Descending Salt Lake Center
Thu 12:58:32 PM 43.0878 -116.9908 50° Northeast 393 452 17,100 -2,613 Descending Salt Lake Center
Thu 12:59:34 PM 43.1614 -116.8719 52° Northeast 363 418 14,100 -1,984 Descending Salt Lake Center
Thu 01:00:36 PM 43.2172 -116.7736 67° East 324 373 13,000 -1,415 Descending Salt Lake Center
Thu 01:01:37 PM 43.2503 -116.6675 67° East 288 331 11,200 -1,805 Descending Salt Lake Center
Thu 01:02:39 PM 43.2819 -116.5642 70° East 283 326 9,300 -1,742 Descending Salt Lake Center
Thu 01:03:41 PM 43.3067 -116.4728 71° East 270 311 7,600 -1,122 Descending Salt Lake Center
Thu 01:04:42 PM 43.3311 -116.3742 72° East 262 302 7,000 -293 Descending Salt Lake Center
Thu 01:05:44 PM 43.3550 -116.2731 71° East 264 304 7,000 -532 Level Salt Lake Center
Thu 01:06:46 PM 43.3794 -116.1756 71° East 260 299 5,900 -683 Descending Salt Lake Center
Thu 01:07:47 PM 43.4000 -116.0953 38° Northeast 232 267 5,600 -146 Descending Salt Lake Center
Thu 01:08:49 PM 43.4458 -116.0453 359° North 202 232 5,600  Level Salt Lake Center
Thu 01:09:51 PM 43.4875 -116.0458 359° North 153 176 5,600  Level Salt Lake Center

Login

Don't have an account? Register now (free) for customized features, flight alerts, and more!